Baker, MT (59313)

6:13 AM MST on December 11, 2016 (GMT -0700)
Baker Municipal | | Change Station

Elev 2972 ft 46.35 °N, 104.26 °W | Updated 22 minutes ago

Clear
Clear
0 °F
Feels Like -20 °F
N
16
Wind Variable Wind from WNW

Today
High -- | Low -- °F
--% Chance of Precip.
Yesterday
High -- | Low -- °F
Precip. -- in
Pressure 30.09 in
Visibility 10.0 miles
Clouds Clear
Windchill -20 °F
Dew Point -5 °F
Humidity 79%
Rainfall 0.00 in
Snow Depth Not available.
7:30 AM 4:10 PM
Waxing Gibbous, 91% visible
METAR KBHK 111251Z AUTO 30014KT 10SM CLR M18/M21 A2989 RMK AO2 PK WND 31027/1205 SLP190 T11781206
Pressure 30.09 in
Visibility 10.0 miles
Clouds Clear
Windchill -20 °F
Dew Point -5 °F
Humidity 79%
Rainfall 0.00 in
Snow Depth Not available.
7:30 AM 4:10 PM
Waxing Gibbous, 91% visible
METAR KBHK 111251Z AUTO 30014KT 10SM CLR M18/M21 A2989 RMK AO2 PK WND 31027/1205 SLP190 T11781206

10-Day Weather Forecast

Almanac

Astronomy

Dec. 11, 2016 Rise Set
Actual Time
Civil Twilight
Nautical Twilight
Astronomical Twilight
Moon
Length of Visible Light
Length of Day
Tomorrow will be .
, % of the Moon is Illuminated

Today's Extremes

State Highs State Lows

Community

WunderPhotos

Upload Photos

1,956,714 photos uploaded!

WunderBlog® & News

Nearby

Air Quality

  Air Quality AQ Index Pollutant
Not available.

Snow Depth

Station Depth Elevation

Earthquake Activity

City Distance Mag. Time & Date
Minimum magnitude displayed is 2.5.

Coastal Water Temperatures

Place Temperature

Stations

Nearby Weather Stations

Station Location Temp. Windchill Dew Point Humidity Wind Precip. Elev Updated Type
                   

Watches & Warnings

There are currently no watches in effect.